createdAt,value
2019-01-12T00:00:18.286Z,284.52
2019-01-12T00:01:18.267Z,283.83
2019-01-12T00:02:18.266Z,284.23
2019-01-12T00:03:18.250Z,283.56
2019-01-12T00:04:18.237Z,283.48
2019-01-12T00:05:18.804Z,283.63
2019-01-12T00:06:18.216Z,283.93
2019-01-12T00:07:18.230Z,283.92
2019-01-12T00:08:18.206Z,283.74
2019-01-12T00:09:18.190Z,284.01
2019-01-12T00:10:18.184Z,284.03
2019-01-12T00:11:18.238Z,283.50
2019-01-12T00:12:18.157Z,283.75
2019-01-12T00:13:18.163Z,284.04
2019-01-12T00:14:18.131Z,284.05
2019-01-12T00:15:18.128Z,284.13
2019-01-12T00:16:18.126Z,283.37
2019-01-12T00:17:18.107Z,283.52
2019-01-12T00:18:18.106Z,283.43
2019-01-12T00:19:18.090Z,284.45
2019-01-12T00:20:18.074Z,283.63
2019-01-12T00:21:18.064Z,284.09
2019-01-12T00:22:18.061Z,283.96
2019-01-12T00:23:18.048Z,283.71
2019-01-12T00:24:18.033Z,283.83
2019-01-12T00:25:18.043Z,283.31
2019-01-12T00:26:18.062Z,284.02
2019-01-12T00:27:17.996Z,284.25
2019-01-12T00:28:18.001Z,283.88
2019-01-12T00:29:17.978Z,284.15
2019-01-12T00:30:17.967Z,283.91
2019-01-12T00:31:17.969Z,284.19
2019-01-12T00:32:17.944Z,284.05
2019-01-12T00:33:17.937Z,283.82
2019-01-12T00:34:17.939Z,284.16
2019-01-12T00:35:18.815Z,284.32
2019-01-12T00:36:17.902Z,283.32
2019-01-12T00:37:17.907Z,283.82
2019-01-12T00:38:17.885Z,283.42
2019-01-12T00:39:17.871Z,283.61
2019-01-12T00:40:17.878Z,283.54
2019-01-12T00:41:17.854Z,283.86
2019-01-12T00:42:17.839Z,284.45
2019-01-12T00:43:17.841Z,283.89
2019-01-12T00:44:17.831Z,283.09
2019-01-12T00:45:17.809Z,283.70
2019-01-12T00:46:17.790Z,284.24
2019-01-12T00:47:17.791Z,283.48
2019-01-12T00:48:17.774Z,283.16
2019-01-12T00:49:17.767Z,283.51
2019-01-12T00:50:17.754Z,283.60
2019-01-12T00:51:17.754Z,283.95
2019-01-12T00:52:17.733Z,284.16
2019-01-12T00:53:17.725Z,284.03
2019-01-12T00:54:17.721Z,284.03
2019-01-12T00:55:17.726Z,283.90
2019-01-12T00:56:17.698Z,284.09
2019-01-12T00:57:17.753Z,283.59
2019-01-12T00:58:17.681Z,283.58
2019-01-12T00:59:17.670Z,283.62
2019-01-12T01:00:17.662Z,283.49
2019-01-12T01:01:17.642Z,283.72
2019-01-12T01:02:17.628Z,284.00
2019-01-12T01:03:17.618Z,283.66
2019-01-12T01:04:17.612Z,283.99
2019-01-12T01:05:17.612Z,283.74
2019-01-12T01:06:17.596Z,284.13
2019-01-12T01:07:17.577Z,283.51
2019-01-12T01:08:17.576Z,283.73
2019-01-12T01:09:17.574Z,283.53
2019-01-12T01:10:17.554Z,283.36
2019-01-12T01:11:17.543Z,283.77
2019-01-12T01:12:17.536Z,284.05
2019-01-12T01:13:17.521Z,283.75
2019-01-12T01:14:17.508Z,283.71
2019-01-12T01:15:17.492Z,283.92
2019-01-12T01:16:17.481Z,283.40
2019-01-12T01:17:17.480Z,283.45
2019-01-12T01:18:17.480Z,283.64
2019-01-12T01:19:17.461Z,283.88
2019-01-12T01:20:17.448Z,283.25
2019-01-12T01:21:17.433Z,284.01
2019-01-12T01:22:17.423Z,283.79
2019-01-12T01:23:17.416Z,284.25
2019-01-12T01:24:17.400Z,283.59
2019-01-12T01:25:17.391Z,283.88
2019-01-12T01:26:17.403Z,283.79
2019-01-12T01:27:17.365Z,284.07
2019-01-12T01:28:17.352Z,284.03
2019-01-12T01:29:17.341Z,284.33
2019-01-12T01:30:17.340Z,284.00
2019-01-12T01:31:17.370Z,283.88
2019-01-12T01:32:17.316Z,283.71
2019-01-12T01:33:17.306Z,283.63
2019-01-12T01:34:17.295Z,283.56
2019-01-12T01:35:17.283Z,283.82
2019-01-12T01:36:17.281Z,283.45
2019-01-12T01:37:17.275Z,283.39
2019-01-12T01:38:17.249Z,283.42
2019-01-12T01:39:17.256Z,283.79
2019-01-12T01:40:17.241Z,283.47
2019-01-12T01:41:17.212Z,283.40
2019-01-12T01:42:17.219Z,284.35
2019-01-12T01:43:17.217Z,283.39
2019-01-12T01:44:17.187Z,284.11
2019-01-12T01:45:17.174Z,284.20
2019-01-12T01:46:17.167Z,283.60
2019-01-12T01:47:17.161Z,283.82
2019-01-12T01:48:17.153Z,283.54
2019-01-12T01:49:17.138Z,283.98
2019-01-12T01:50:17.130Z,284.08
2019-01-12T01:51:17.111Z,283.53
2019-01-12T01:52:17.114Z,283.33
2019-01-12T01:53:17.094Z,283.63
2019-01-12T01:54:17.083Z,283.38
2019-01-12T01:55:17.073Z,283.75
2019-01-12T01:56:17.055Z,283.68
2019-01-12T01:57:17.052Z,284.05
2019-01-12T01:58:17.041Z,283.61
2019-01-12T01:59:17.032Z,283.72
2019-01-12T02:00:17.037Z,283.00
2019-01-12T02:01:17.027Z,283.63
2019-01-12T02:02:17.001Z,284.11
2019-01-12T02:03:16.984Z,283.93
2019-01-12T02:04:16.985Z,283.96
2019-01-12T02:05:16.975Z,283.29
2019-01-12T02:06:16.965Z,283.82
2019-01-12T02:07:16.945Z,283.89
2019-01-12T02:08:16.938Z,283.33
2019-01-12T02:09:16.937Z,283.75
2019-01-12T02:10:16.915Z,282.96
2019-01-12T02:11:16.908Z,283.62
2019-01-12T02:12:16.905Z,284.17
2019-01-12T02:13:16.883Z,283.15
2019-01-12T02:14:16.868Z,283.48
2019-01-12T02:15:16.865Z,283.77
2019-01-12T02:16:16.851Z,283.79
2019-01-12T02:17:16.854Z,283.44
2019-01-12T02:18:16.834Z,282.74
2019-01-12T02:19:16.821Z,283.55
2019-01-12T02:20:16.809Z,283.60
2019-01-12T02:21:16.802Z,283.47
2019-01-12T02:22:16.792Z,283.53
2019-01-12T02:23:16.789Z,283.33
2019-01-12T02:24:16.770Z,283.03
2019-01-12T02:25:16.756Z,283.28
2019-01-12T02:26:16.758Z,283.54
2019-01-12T02:27:16.742Z,283.34
2019-01-12T02:28:16.719Z,283.90
2019-01-12T02:29:16.717Z,283.76
2019-01-12T02:30:16.754Z,283.97
2019-01-12T02:31:16.690Z,283.28
2019-01-12T02:32:16.678Z,283.12
2019-01-12T02:33:16.683Z,282.92
2019-01-12T02:34:16.661Z,283.56
2019-01-12T02:35:16.677Z,284.00
2019-01-12T02:36:16.653Z,283.52
2019-01-12T02:37:16.628Z,282.99
2019-01-12T02:38:16.643Z,283.83
2019-01-12T02:39:16.610Z,283.96
2019-01-12T02:40:16.600Z,283.74
2019-01-12T02:41:16.595Z,284.10
2019-01-12T02:42:16.578Z,283.57
2019-01-12T02:43:16.599Z,283.88
2019-01-12T02:44:16.556Z,283.62
2019-01-12T02:45:16.548Z,283.48
2019-01-12T02:46:17.283Z,283.96
2019-01-12T02:47:16.525Z,283.34
2019-01-12T02:48:16.514Z,283.25
2019-01-12T02:49:16.506Z,283.92
2019-01-12T02:50:16.498Z,283.32
2019-01-12T02:51:16.488Z,283.73
2019-01-12T02:52:16.490Z,283.93
2019-01-12T02:53:16.463Z,283.81
2019-01-12T02:54:16.455Z,283.57
2019-01-12T02:55:16.441Z,283.40
2019-01-12T02:56:16.429Z,283.49
2019-01-12T02:57:16.444Z,283.72
2019-01-12T02:58:16.415Z,283.93
2019-01-12T02:59:16.402Z,283.75
2019-01-12T03:00:16.518Z,283.64
2019-01-12T03:01:16.382Z,283.62
2019-01-12T03:02:16.381Z,284.09
2019-01-12T03:03:16.365Z,283.49
2019-01-12T03:04:16.345Z,283.26
2019-01-12T03:05:16.348Z,283.71
2019-01-12T03:06:16.323Z,283.78
2019-01-12T03:07:16.359Z,283.67
2019-01-12T03:08:16.311Z,283.40
2019-01-12T03:09:16.317Z,283.77
2019-01-12T03:10:16.286Z,283.48
2019-01-12T03:11:16.271Z,283.47
2019-01-12T03:12:16.265Z,283.82
2019-01-12T03:13:16.275Z,283.02
2019-01-12T03:14:16.248Z,283.62
2019-01-12T03:15:16.241Z,282.57
2019-01-12T03:16:16.220Z,283.78
2019-01-12T03:17:16.210Z,283.67
2019-01-12T03:18:16.197Z,283.42
2019-01-12T03:19:16.192Z,283.23
2019-01-12T03:20:16.185Z,284.00
2019-01-12T03:21:16.179Z,284.75
2019-01-12T03:22:16.189Z,283.59
2019-01-12T03:23:16.146Z,283.52
2019-01-12T03:24:16.133Z,283.76
2019-01-12T03:25:18.282Z,283.68
2019-01-12T03:26:16.124Z,283.47
2019-01-12T03:27:16.118Z,283.23
2019-01-12T03:28:16.093Z,283.26
2019-01-12T03:29:16.113Z,283.62
2019-01-12T03:30:16.109Z,283.22
2019-01-12T03:31:16.084Z,283.41
2019-01-12T03:32:16.054Z,283.76
2019-01-12T03:33:16.075Z,283.62
2019-01-12T03:34:16.041Z,283.57
2019-01-12T03:35:16.020Z,283.52
2019-01-12T03:36:16.015Z,283.73
2019-01-12T03:37:16.039Z,283.57
2019-01-12T03:38:15.990Z,283.44
2019-01-12T03:39:15.980Z,283.79
2019-01-12T03:40:15.969Z,283.35
2019-01-12T03:41:15.956Z,283.48
2019-01-12T03:42:15.952Z,283.92
2019-01-12T03:43:15.962Z,283.20
2019-01-12T03:44:15.928Z,283.32
2019-01-12T03:45:15.918Z,283.43
2019-01-12T03:46:15.905Z,283.84
2019-01-12T03:47:15.898Z,283.15
2019-01-12T03:48:15.891Z,283.74
2019-01-12T03:49:15.878Z,283.73
2019-01-12T03:50:15.866Z,283.37
2019-01-12T03:51:15.859Z,283.87
2019-01-12T03:52:15.852Z,283.62
2019-01-12T03:53:15.842Z,283.39
2019-01-12T03:54:15.845Z,283.81
2019-01-12T03:55:15.810Z,283.51
2019-01-12T03:56:15.812Z,283.50
2019-01-12T03:57:15.803Z,283.57
2019-01-12T03:58:15.782Z,283.77
2019-01-12T03:59:15.770Z,283.68
2019-01-12T04:00:15.764Z,283.88
2019-01-12T04:01:15.763Z,283.38
2019-01-12T04:02:15.752Z,283.85
2019-01-12T04:03:15.731Z,283.64
2019-01-12T04:04:15.719Z,283.64
2019-01-12T04:05:15.722Z,283.53
2019-01-12T04:06:15.703Z,283.64
2019-01-12T04:07:15.691Z,283.04
2019-01-12T04:08:15.701Z,283.84
2019-01-12T04:09:15.706Z,283.54
2019-01-12T04:10:15.662Z,283.88
2019-01-12T04:11:15.642Z,283.84
2019-01-12T04:12:15.636Z,283.61
2019-01-12T04:13:15.625Z,283.77
2019-01-12T04:14:15.618Z,283.62
2019-01-12T04:15:15.607Z,283.61
2019-01-12T04:16:15.596Z,283.63
2019-01-12T04:17:15.576Z,283.68
2019-01-12T04:18:15.579Z,283.78
2019-01-12T04:19:15.567Z,283.35
2019-01-12T04:20:15.551Z,283.59
2019-01-12T04:21:15.558Z,283.54
2019-01-12T04:22:15.537Z,283.71
2019-01-12T04:23:15.523Z,283.52
2019-01-12T04:24:15.510Z,283.47
2019-01-12T04:25:15.529Z,283.23
2019-01-12T04:26:15.512Z,283.33
2019-01-12T04:27:15.487Z,283.79
2019-01-12T04:28:15.487Z,282.99
2019-01-12T04:29:15.456Z,283.72
2019-01-12T04:30:15.453Z,283.52
2019-01-12T04:31:15.442Z,283.58
2019-01-12T04:32:15.440Z,283.80
2019-01-12T04:33:15.418Z,284.08
2019-01-12T04:34:15.415Z,283.82
2019-01-12T04:35:15.399Z,283.34
2019-01-12T04:36:15.382Z,283.45
2019-01-12T04:37:15.390Z,283.31
2019-01-12T04:38:15.420Z,283.35
2019-01-12T04:39:15.369Z,283.71
2019-01-12T04:40:15.341Z,283.83
2019-01-12T04:41:15.341Z,283.68
2019-01-12T04:42:15.331Z,283.66
2019-01-12T04:43:15.319Z,284.08
2019-01-12T04:44:15.302Z,283.53
2019-01-12T04:45:15.285Z,283.54
2019-01-12T04:46:15.273Z,283.87
2019-01-12T04:47:15.273Z,283.64
2019-01-12T04:48:15.280Z,282.88
2019-01-12T04:49:15.248Z,283.67
2019-01-12T04:50:15.236Z,283.59
2019-01-12T04:51:15.266Z,283.82
2019-01-12T04:52:15.224Z,284.04
2019-01-12T04:53:15.224Z,283.78
2019-01-12T04:54:15.195Z,284.12
2019-01-12T04:55:15.185Z,283.65
2019-01-12T04:56:15.174Z,283.35
2019-01-12T04:57:15.163Z,283.59
2019-01-12T04:58:15.152Z,283.43
2019-01-12T04:59:15.151Z,283.69
2019-01-12T05:00:15.167Z,283.95
2019-01-12T05:01:15.164Z,283.61
2019-01-12T05:02:15.130Z,283.99
2019-01-12T05:03:15.113Z,283.47
2019-01-12T05:04:15.099Z,283.66
2019-01-12T05:05:15.091Z,283.79
2019-01-12T05:06:15.098Z,284.11
2019-01-12T05:07:15.067Z,283.74
2019-01-12T05:08:15.085Z,283.75
2019-01-12T05:09:15.030Z,283.45
2019-01-12T05:10:15.040Z,283.61
2019-01-12T05:11:15.014Z,283.89
2019-01-12T05:12:15.012Z,283.99
2019-01-12T05:13:15.005Z,283.18
2019-01-12T05:14:14.995Z,283.92
2019-01-12T05:15:14.972Z,284.00
2019-01-12T05:16:14.977Z,282.93
2019-01-12T05:17:14.956Z,283.92
2019-01-12T05:18:14.962Z,284.28
2019-01-12T05:19:14.946Z,283.51
2019-01-12T05:20:14.936Z,283.33
2019-01-12T05:21:14.922Z,283.88
2019-01-12T05:22:14.911Z,284.35
2019-01-12T05:23:14.896Z,283.58
2019-01-12T05:24:14.960Z,283.84
2019-01-12T05:25:14.882Z,284.03
2019-01-12T05:26:14.873Z,283.71
2019-01-12T05:27:14.931Z,283.18
2019-01-12T05:28:14.856Z,283.49
2019-01-12T05:29:14.850Z,283.61
2019-01-12T05:30:14.821Z,283.55
2019-01-12T05:31:14.812Z,283.16
2019-01-12T05:32:14.839Z,283.38
2019-01-12T05:33:14.794Z,283.44
2019-01-12T05:34:14.790Z,283.40
2019-01-12T05:35:14.774Z,283.11
2019-01-12T05:36:14.750Z,282.53
2019-01-12T05:37:14.743Z,283.26
2019-01-12T05:38:14.730Z,282.89
2019-01-12T05:39:14.721Z,282.65
2019-01-12T05:40:14.730Z,282.40
2019-01-12T05:41:14.700Z,282.96
2019-01-12T05:42:14.690Z,282.42
2019-01-12T05:43:15.956Z,282.78
2019-01-12T05:44:14.667Z,282.77
2019-01-12T05:45:14.655Z,282.42
2019-01-12T05:46:14.648Z,282.54
2019-01-12T05:47:14.646Z,282.78
2019-01-12T05:48:14.624Z,282.74
2019-01-12T05:49:14.620Z,282.35
2019-01-12T05:50:14.608Z,282.19
2019-01-12T05:51:14.602Z,282.18
2019-01-12T05:52:14.592Z,282.67
2019-01-12T05:53:14.574Z,282.92
2019-01-12T05:54:14.567Z,282.27
2019-01-12T05:55:14.559Z,282.16
2019-01-12T05:56:14.546Z,282.19
2019-01-12T05:57:14.538Z,281.73
2019-01-12T05:58:14.518Z,282.78
2019-01-12T05:59:14.506Z,282.76
2019-01-12T06:00:14.527Z,281.98
2019-01-12T06:01:14.489Z,282.58
2019-01-12T06:02:14.486Z,281.92
2019-01-12T06:03:14.471Z,282.13
2019-01-12T06:04:14.458Z,281.96
2019-01-12T06:05:14.464Z,282.55
2019-01-12T06:06:14.434Z,282.00
2019-01-12T06:07:14.425Z,281.99
2019-01-12T06:08:14.421Z,282.16
2019-01-12T06:09:14.414Z,281.81
2019-01-12T06:10:14.806Z,281.95
2019-01-12T06:11:14.388Z,281.92
2019-01-12T06:12:14.394Z,281.71
2019-01-12T06:13:14.375Z,281.51
2019-01-12T06:14:14.355Z,281.60
2019-01-12T06:15:14.346Z,281.66
2019-01-12T06:16:14.329Z,281.79
2019-01-12T06:17:14.347Z,281.66
2019-01-12T06:18:14.315Z,281.43
2019-01-12T06:19:14.303Z,281.67
2019-01-12T06:20:14.291Z,282.07
2019-01-12T06:21:14.278Z,281.37
2019-01-12T06:22:14.289Z,281.51
2019-01-12T06:23:14.261Z,281.46
2019-01-12T06:24:14.249Z,281.50
2019-01-12T06:25:14.258Z,282.26
2019-01-12T06:26:14.246Z,282.08
2019-01-12T06:27:14.216Z,282.01
2019-01-12T06:28:14.204Z,281.06
2019-01-12T06:29:14.201Z,281.69
2019-01-12T06:30:14.185Z,281.36
2019-01-12T06:31:14.191Z,281.58
2019-01-12T06:32:14.180Z,281.36
2019-01-12T06:33:14.152Z,280.79
2019-01-12T06:34:14.140Z,281.73
2019-01-12T06:35:14.139Z,281.41
2019-01-12T06:36:14.127Z,281.65
2019-01-12T06:37:14.115Z,281.03
2019-01-12T06:38:14.118Z,281.37
2019-01-12T06:39:14.093Z,281.65
2019-01-12T06:40:14.084Z,281.45
2019-01-12T06:41:14.070Z,281.21
2019-01-12T06:42:14.060Z,281.30
2019-01-12T06:43:14.050Z,281.02
2019-01-12T06:44:14.927Z,281.32
2019-01-12T06:45:14.031Z,281.57
2019-01-12T06:46:14.022Z,281.15
2019-01-12T06:47:14.017Z,281.24
2019-01-12T06:48:13.997Z,281.24
2019-01-12T06:49:13.986Z,281.50
2019-01-12T06:50:14.003Z,281.13
2019-01-12T06:51:13.974Z,282.41
2019-01-12T06:52:13.957Z,281.27
2019-01-12T06:53:13.940Z,280.91
2019-01-12T06:54:13.940Z,281.45
2019-01-12T06:55:13.941Z,281.31
2019-01-12T06:56:13.909Z,281.47
2019-01-12T06:57:13.904Z,281.12
2019-01-12T06:58:13.904Z,281.07
2019-01-12T06:59:13.879Z,280.78
2019-01-12T07:00:13.871Z,281.68
2019-01-12T07:01:13.871Z,280.97
2019-01-12T07:02:13.853Z,281.19
2019-01-12T07:03:13.838Z,281.24
2019-01-12T07:04:13.827Z,281.37
2019-01-12T07:05:13.835Z,281.39
2019-01-12T07:06:13.837Z,281.50
2019-01-12T07:07:13.802Z,281.22
2019-01-12T07:08:13.787Z,281.06
2019-01-12T07:09:13.778Z,280.68
2019-01-12T07:10:13.768Z,281.73
2019-01-12T07:11:13.809Z,281.30
2019-01-12T07:12:13.746Z,281.25
2019-01-12T07:13:13.734Z,281.71
2019-01-12T07:14:13.730Z,281.03
2019-01-12T07:15:13.709Z,281.26
2019-01-12T07:16:13.709Z,281.09
2019-01-12T07:17:13.690Z,280.92
2019-01-12T07:18:13.675Z,281.57
2019-01-12T07:19:13.667Z,280.80
2019-01-12T07:20:13.655Z,281.18
2019-01-12T07:21:13.643Z,281.41
2019-01-12T07:22:13.644Z,281.28
2019-01-12T07:23:13.629Z,281.32
2019-01-12T07:24:13.626Z,280.95
2019-01-12T07:25:13.606Z,281.31
2019-01-12T07:26:17.561Z,281.52
2019-01-12T07:27:13.590Z,281.17
2019-01-12T07:28:13.573Z,281.31
2019-01-12T07:29:13.571Z,281.52
2019-01-12T07:30:14.453Z,281.32
2019-01-12T07:31:13.538Z,281.06
2019-01-12T07:32:13.534Z,281.67
2019-01-12T07:33:13.522Z,281.17
2019-01-12T07:34:13.513Z,280.89
2019-01-12T07:35:13.496Z,281.35
2019-01-12T07:36:13.492Z,281.43
2019-01-12T07:37:13.482Z,281.83
2019-01-12T07:38:13.478Z,281.26
2019-01-12T07:39:13.467Z,281.70
2019-01-12T07:40:13.513Z,281.39
2019-01-12T07:41:13.444Z,281.59
2019-01-12T07:42:13.425Z,281.33
2019-01-12T07:43:13.437Z,281.57
2019-01-12T07:44:13.406Z,281.50
2019-01-12T07:45:13.390Z,280.88
2019-01-12T07:46:13.395Z,281.63
2019-01-12T07:47:13.371Z,281.24
2019-01-12T07:48:13.362Z,281.37
2019-01-12T07:49:13.360Z,281.86
2019-01-12T07:50:13.351Z,281.25
2019-01-12T07:51:13.336Z,281.45
2019-01-12T07:52:13.333Z,281.67
2019-01-12T07:53:13.315Z,280.88
2019-01-12T07:54:13.302Z,281.72
2019-01-12T07:55:13.291Z,281.36
2019-01-12T07:56:13.286Z,281.66
2019-01-12T07:57:13.271Z,281.56
2019-01-12T07:58:13.262Z,280.97
2019-01-12T07:59:13.248Z,281.01
2019-01-12T08:00:13.236Z,281.36
2019-01-12T08:01:13.225Z,280.95
2019-01-12T08:02:13.213Z,281.66
2019-01-12T08:03:13.216Z,281.27
2019-01-12T08:04:13.193Z,281.64
2019-01-12T08:05:13.180Z,280.69
2019-01-12T08:06:13.186Z,281.27
2019-01-12T08:07:13.405Z,280.52
2019-01-12T08:08:13.153Z,280.73
2019-01-12T08:09:13.139Z,281.44
2019-01-12T08:10:13.138Z,281.35
2019-01-12T08:11:13.127Z,280.82
2019-01-12T08:12:13.115Z,280.78
2019-01-12T08:13:13.120Z,281.83
2019-01-12T08:14:13.092Z,281.14
2019-01-12T08:15:13.092Z,281.44
2019-01-12T08:16:13.076Z,280.91
2019-01-12T08:17:13.055Z,281.26
2019-01-12T08:18:13.048Z,282.08
2019-01-12T08:19:13.076Z,281.59
2019-01-12T08:20:13.051Z,281.08
2019-01-12T08:21:13.040Z,281.05
2019-01-12T08:22:13.002Z,281.23
2019-01-12T08:23:12.991Z,281.50
2019-01-12T08:24:12.981Z,281.44
2019-01-12T08:25:12.987Z,280.65
2019-01-12T08:26:12.983Z,280.82
2019-01-12T08:27:12.960Z,281.30
2019-01-12T08:28:12.951Z,281.28
2019-01-12T08:29:12.931Z,281.27
2019-01-12T08:30:12.935Z,281.93
2019-01-12T08:31:12.913Z,281.45
2019-01-12T08:32:12.926Z,281.56
2019-01-12T08:33:12.892Z,281.11
2019-01-12T08:34:12.887Z,280.88
2019-01-12T08:35:12.869Z,281.21
2019-01-12T08:36:12.863Z,281.07
2019-01-12T08:37:12.884Z,281.17
2019-01-12T08:38:13.468Z,281.59
2019-01-12T08:39:12.835Z,281.55
2019-01-12T08:40:12.828Z,281.20
2019-01-12T08:41:12.811Z,281.02
2019-01-12T08:42:12.806Z,281.42
2019-01-12T08:43:12.783Z,281.07
2019-01-12T08:44:12.780Z,280.82
2019-01-12T08:45:12.772Z,281.18
2019-01-12T08:46:12.766Z,281.26
2019-01-12T08:47:12.753Z,281.02
2019-01-12T08:48:12.784Z,281.69
2019-01-12T08:49:12.731Z,281.11
2019-01-12T08:50:12.777Z,281.27
2019-01-12T08:51:12.719Z,281.48
2019-01-12T08:52:12.698Z,281.25
2019-01-12T08:53:12.684Z,281.71
2019-01-12T08:54:12.673Z,281.42
2019-01-12T08:55:12.664Z,281.26
2019-01-12T08:56:12.707Z,281.14
2019-01-12T08:57:12.646Z,281.07
2019-01-12T08:58:12.629Z,281.58
2019-01-12T08:59:12.624Z,280.91
2019-01-12T09:00:12.613Z,281.25
2019-01-12T09:01:12.601Z,281.75
2019-01-12T09:02:12.590Z,280.90
2019-01-12T09:03:12.581Z,281.32
2019-01-12T09:04:12.571Z,281.40
2019-01-12T09:05:12.560Z,280.84
2019-01-12T09:06:12.552Z,281.15
2019-01-12T09:07:12.564Z,281.08
2019-01-12T09:08:12.535Z,281.15
2019-01-12T09:09:12.521Z,281.72
2019-01-12T09:10:12.515Z,281.31
2019-01-12T09:11:12.499Z,281.18
2019-01-12T09:12:12.492Z,281.54
2019-01-12T09:13:12.472Z,281.40
2019-01-12T09:14:12.463Z,281.45
2019-01-12T09:15:12.460Z,281.47
2019-01-12T09:16:12.451Z,281.78
2019-01-12T09:17:12.445Z,282.12
2019-01-12T09:18:12.426Z,281.76
2019-01-12T09:19:12.409Z,280.58
2019-01-12T09:20:12.397Z,280.68
2019-01-12T09:21:12.388Z,281.51
2019-01-12T09:22:12.382Z,281.42
2019-01-12T09:23:12.368Z,282.08
2019-01-12T09:24:12.362Z,281.62
2019-01-12T09:25:12.347Z,281.01
2019-01-12T09:26:12.343Z,280.98
2019-01-12T09:27:12.327Z,281.68
2019-01-12T09:28:12.347Z,281.57
2019-01-12T09:29:12.309Z,281.72
2019-01-12T09:30:12.303Z,281.68
2019-01-12T09:31:12.286Z,281.01
2019-01-12T09:32:12.279Z,281.42
2019-01-12T09:33:12.275Z,281.60
2019-01-12T09:34:12.258Z,281.70
2019-01-12T09:35:12.247Z,281.85
2019-01-12T09:36:12.239Z,281.60
2019-01-12T09:37:12.231Z,281.33
2019-01-12T09:38:12.218Z,281.25
2019-01-12T09:39:12.206Z,281.92
2019-01-12T09:40:12.200Z,281.12
2019-01-12T09:41:12.187Z,280.93
2019-01-12T09:42:12.175Z,281.90
2019-01-12T09:43:12.169Z,281.74
2019-01-12T09:44:12.155Z,281.02
2019-01-12T09:45:12.150Z,281.75
2019-01-12T09:46:12.145Z,281.95
2019-01-12T09:47:13.090Z,281.73
2019-01-12T09:48:12.112Z,281.78
2019-01-12T09:49:12.101Z,281.35
2019-01-12T09:50:12.094Z,281.67
2019-01-12T09:51:12.103Z,281.75
2019-01-12T09:52:12.079Z,282.31
2019-01-12T09:53:12.075Z,281.74
2019-01-12T09:54:12.068Z,281.32
2019-01-12T09:55:12.039Z,281.30
2019-01-12T09:56:12.029Z,281.54
2019-01-12T09:57:12.015Z,281.56
2019-01-12T09:58:12.009Z,281.62
2019-01-12T09:59:12.001Z,281.89
2019-01-12T10:00:12.037Z,281.39
2019-01-12T10:01:11.975Z,281.98
2019-01-12T10:02:11.963Z,281.79
2019-01-12T10:03:11.965Z,281.70
2019-01-12T10:04:11.962Z,281.97
2019-01-12T10:05:11.935Z,281.55
2019-01-12T10:06:11.928Z,281.04
2019-01-12T10:07:11.914Z,281.05
2019-01-12T10:08:11.917Z,281.82
2019-01-12T10:09:11.899Z,281.91
2019-01-12T10:10:11.891Z,281.92
2019-01-12T10:11:11.885Z,282.55
2019-01-12T10:12:11.864Z,282.05
2019-01-12T10:13:11.854Z,281.05
2019-01-12T10:14:11.840Z,281.08
2019-01-12T10:15:11.837Z,281.81
2019-01-12T10:16:11.819Z,281.61
2019-01-12T10:17:12.602Z,281.80
2019-01-12T10:18:11.796Z,281.99
2019-01-12T10:19:11.788Z,281.62
2019-01-12T10:20:11.773Z,281.40
2019-01-12T10:21:11.769Z,281.90
2019-01-12T10:22:11.761Z,281.08
2019-01-12T10:23:11.750Z,281.44
2019-01-12T10:24:11.737Z,280.76
2019-01-12T10:25:11.728Z,281.62
2019-01-12T10:26:11.729Z,281.60
2019-01-12T10:27:11.712Z,281.49
2019-01-12T10:28:11.700Z,281.72
2019-01-12T10:29:11.683Z,281.36
2019-01-12T10:30:11.684Z,281.19
2019-01-12T10:31:11.667Z,281.01
2019-01-12T10:32:11.674Z,281.56
2019-01-12T10:33:11.736Z,281.70
2019-01-12T10:34:11.668Z,281.55
2019-01-12T10:35:11.623Z,281.54
2019-01-12T10:36:11.610Z,280.90
2019-01-12T10:37:11.606Z,281.29
2019-01-12T10:38:11.601Z,280.94
2019-01-12T10:39:17.780Z,281.15
2019-01-12T10:40:12.576Z,281.02
2019-01-12T10:41:11.564Z,280.78
2019-01-12T10:42:11.551Z,281.00
2019-01-12T10:43:11.537Z,281.10
2019-01-12T10:44:11.531Z,280.98
2019-01-12T10:45:11.521Z,280.67
2019-01-12T10:46:11.518Z,281.53
2019-01-12T10:47:11.495Z,281.46
2019-01-12T10:48:11.489Z,281.24
2019-01-12T10:49:11.477Z,281.22
2019-01-12T10:50:11.460Z,280.78
2019-01-12T10:51:11.457Z,280.81
2019-01-12T10:52:11.458Z,281.25
2019-01-12T10:53:11.437Z,281.00
2019-01-12T10:54:11.422Z,281.20
2019-01-12T10:55:11.417Z,280.55
2019-01-12T10:56:11.404Z,280.97
2019-01-12T10:57:11.395Z,281.11
2019-01-12T10:58:11.381Z,281.60
2019-01-12T10:59:11.371Z,280.21
2019-01-12T11:00:11.450Z,281.22
2019-01-12T11:01:11.368Z,281.44
2019-01-12T11:02:11.336Z,280.84
2019-01-12T11:03:11.336Z,281.83
2019-01-12T11:04:11.340Z,281.80
2019-01-12T11:05:11.333Z,280.56
2019-01-12T11:06:11.319Z,281.06
2019-01-12T11:07:11.300Z,280.79
2019-01-12T11:08:11.283Z,281.21
2019-01-12T11:09:11.280Z,281.48
2019-01-12T11:10:11.264Z,281.79
2019-01-12T11:11:11.271Z,281.57
2019-01-12T11:12:11.234Z,280.82
2019-01-12T11:13:11.265Z,280.97
2019-01-12T11:14:11.216Z,281.38
2019-01-12T11:15:11.205Z,281.04
2019-01-12T11:16:11.203Z,281.17
2019-01-12T11:17:11.189Z,281.14
2019-01-12T11:18:11.171Z,281.11
2019-01-12T11:19:11.166Z,280.55
2019-01-12T11:20:11.152Z,281.53
2019-01-12T11:21:11.143Z,281.20
2019-01-12T11:22:12.024Z,281.35
2019-01-12T11:23:11.163Z,281.06
2019-01-12T11:24:11.155Z,281.13
2019-01-12T11:25:11.194Z,281.07
2019-01-12T11:26:11.094Z,281.48
2019-01-12T11:27:12.409Z,281.00
2019-01-12T11:28:11.078Z,280.67
2019-01-12T11:29:11.062Z,280.99
2019-01-12T11:30:11.056Z,280.52
2019-01-12T11:31:11.044Z,281.08
2019-01-12T11:32:11.057Z,280.60
2019-01-12T11:33:11.027Z,281.38
2019-01-12T11:34:11.007Z,281.00
2019-01-12T11:35:11.005Z,281.32
2019-01-12T11:36:11.004Z,280.97
2019-01-12T11:37:10.985Z,281.23
2019-01-12T11:38:10.967Z,281.35
2019-01-12T11:39:11.535Z,280.22
2019-01-12T11:40:10.945Z,280.98
2019-01-12T11:41:10.936Z,281.25
2019-01-12T11:42:10.942Z,281.51
2019-01-12T11:43:10.926Z,281.17
2019-01-12T11:44:10.904Z,281.26
2019-01-12T11:45:10.920Z,281.38
2019-01-12T11:46:10.878Z,281.17
2019-01-12T11:47:10.874Z,280.97
2019-01-12T11:48:10.863Z,281.83
2019-01-12T11:49:10.875Z,281.83
2019-01-12T11:50:10.849Z,281.15
2019-01-12T11:51:10.836Z,280.99
2019-01-12T11:52:10.828Z,281.26
2019-01-12T11:53:10.823Z,281.32
2019-01-12T11:54:10.836Z,281.16
2019-01-12T11:55:10.804Z,280.72
2019-01-12T11:56:10.838Z,281.37
2019-01-12T11:57:10.770Z,281.61
2019-01-12T11:58:10.758Z,281.21
2019-01-12T11:59:10.761Z,281.55
2019-01-12T12:00:10.737Z,281.17
2019-01-12T12:01:10.732Z,281.10
2019-01-12T12:02:10.721Z,280.76
2019-01-12T12:03:10.712Z,281.49
2019-01-12T12:04:10.700Z,281.37
2019-01-12T12:05:10.698Z,281.37
2019-01-12T12:06:10.683Z,280.98
2019-01-12T12:07:10.665Z,281.47
2019-01-12T12:08:10.655Z,281.17
2019-01-12T12:09:10.642Z,281.08
2019-01-12T12:10:10.633Z,281.41
2019-01-12T12:11:10.630Z,281.27
2019-01-12T12:12:10.620Z,281.37
2019-01-12T12:13:10.605Z,281.62
2019-01-12T12:14:10.589Z,281.46
2019-01-12T12:15:10.583Z,281.56
2019-01-12T12:16:10.571Z,281.46
2019-01-12T12:17:11.496Z,281.88
2019-01-12T12:18:10.567Z,281.34
2019-01-12T12:19:10.542Z,281.37
2019-01-12T12:20:10.534Z,281.26
2019-01-12T12:21:10.530Z,281.63
2019-01-12T12:22:10.510Z,280.47
2019-01-12T12:23:10.503Z,281.32
2019-01-12T12:24:10.493Z,281.59
2019-01-12T12:25:10.480Z,281.76
2019-01-12T12:26:10.467Z,281.30
2019-01-12T12:27:10.472Z,280.65
2019-01-12T12:28:10.456Z,280.81